Lake Country Regional Airport
KW63 : now visible

Airfield :











YOU CAN JOIN US ON...

 
LOGIN :

Register | Disclaimer

   EN    FR    IT 

 









Legend :    VFR   Marginal VFR   IFR   Intensive IFR   Very Intensive IFR
Visi :
Ceiling :
>= 8 km
>= 3000ft
5 to 8 km
1000 to 3000 ft
1500m to 5 km
500 to 1000 ft
800 to 1500m
200 to 500 ft
< 800m
< 200 ft
Symbols :   Thunderstorms  Fog  Heavy snow  Heavy precipitations  Wind > 20 kt






- Airport Elevation : 421 ft


KW63 - Lake Country Regional

CURRENT METAR :
  • 101015Z AUTO 33006KT 10SM SCT090 08/M03 A2969 RMK AO1

EXPIRED METARs :
  • 100915Z AUTO 33003KT 10SM BKN085 08/M02 A2967 RMK AO1
  • 100855Z AUTO 33003KT 10SM BKN095 08/M02 A2966 RMK AO1
  • 100835Z AUTO 00000KT 10SM CLR 07/M02 A2966 RMK AO1
  • 100815Z AUTO 00000KT 10SM CLR 06/00 A2965 RMK AO1
  • 100755Z AUTO 00000KT 10SM CLR 09/M03 A2964 RMK AO1
  • 100735Z AUTO 00000KT 10SM CLR 10/M03 A2963 RMK AO1

TAF N/A



MET'MAP, your aeronautical weather chart ! - Copyright ORBIFLY December 2007 - Disclaimer

ORBIFLY MET'MAP TEAM :

Programming & Development : Alexandra Zaïnal
Concept & original design : Baudouin d'Aumeries
Assistance for programming : Marc-Olivier Méhu
Technical & hardware support : Manuel Goepfert

Contact : metmap@orbifly.com




SOURCES & CREDITS :

   NOAA       Earth
Advisory